CheckWX is a tool to help pilots better visualize weather data.  It is not intended as a substitute for an official pre-flight weather briefing.

08:03:02 UTC

KHPN TAF
Westchester County Airport
White Plains, New York, USA
KHPN 200540Z 2006/2106 32005KT P6SM FEW190 FM201000 35004KT P6SM FEW180 FM201200 02004KT P6SM FEW045 FEW150 FM201600 07004KT P6SM FEW120 FM201700 14005KT P6SM FEW080 FM201800 18005KT P6SM FEW035 FEW060 FM210500 17003KT P6SM SCT035 BKN060 AMD NOT SKED

Aug-20@
06:00 UTC

Aug-20 @ 06:00 UTC

Aug-20@
10:00 UTC

Aug-20 @ 10:00 UTC

KHPN 200540Z 2006/2106 32005KT P6SM FEW190
Wind
  • 320° at 5 KTS
Cloud Levels
  • Few at 19,000' AGL

Aug-20@
10:00 UTC

Aug-20 @ 10:00 UTC

Aug-20@
12:00 UTC

Aug-20 @ 12:00 UTC

FM201000 35004KT P6SM FEW180

From

From Standard forecast or significant change

Wind
  • 350° at 4 KTS
Cloud Levels
  • Few at 18,000' AGL

Aug-20@
12:00 UTC

Aug-20 @ 12:00 UTC

Aug-20@
16:00 UTC

Aug-20 @ 16:00 UTC

FM201200 02004KT P6SM FEW045 FEW150

From

From Standard forecast or significant change

Wind
  • 020° at 4 KTS
Cloud Levels
  • Few at 4,500' AGL
  • Few at 15,000' AGL

Aug-20@
16:00 UTC

Aug-20 @ 16:00 UTC

Aug-20@
17:00 UTC

Aug-20 @ 17:00 UTC

FM201600 07004KT P6SM FEW120

From

From Standard forecast or significant change

Wind
  • 070° at 4 KTS
Cloud Levels
  • Few at 12,000' AGL

Aug-20@
17:00 UTC

Aug-20 @ 17:00 UTC

Aug-20@
18:00 UTC

Aug-20 @ 18:00 UTC

FM201700 14005KT P6SM FEW080

From

From Standard forecast or significant change

Wind
  • 140° at 5 KTS
Cloud Levels
  • Few at 8,000' AGL

Aug-20@
18:00 UTC

Aug-20 @ 18:00 UTC

Aug-21@
05:00 UTC

Aug-21 @ 05:00 UTC

FM201800 18005KT P6SM FEW035 FEW060

From

From Standard forecast or significant change

Wind
  • 180° at 5 KTS
Cloud Levels
  • Few at 3,500' AGL
  • Few at 6,000' AGL

Aug-21@
05:00 UTC

Aug-21 @ 05:00 UTC

Aug-21@
06:00 UTC

Aug-21 @ 06:00 UTC

FM210500 17003KT P6SM SCT035 BKN060 AMD NOT SKED

From

From Standard forecast or significant change

Wind
  • 170° at 3 KTS
Cloud Levels
  • Scattered at 3,500' AGL
  • Broken at 6,000' AGL